< < Back
Terminal Aerodrome Forecast


Current Version              Previous Versions:   1  2  3  4  5  6  7  8  9  

Terminal Aerodrome Forecast

591
FTUS42 KILM 281100
TAFFLO
TAF
KFLO 281128Z 2812/2912 36009KT P6SM FEW050 SCT120 SCT200
     FM282300 00000KT P6SM FEW120 SCT250=



Latest METAR

604
SAUS70 KWBC 290200 RRK
MTRFLO
METAR KFLO 290153Z 00000KT 6SM HZ CLR 01/M02 A3034 RMK AO2 SLP275
T00061022


USA.gov is the U.S. government's official web portal to all federal, state and local government web resources and services.